createdAt,value
2018-06-08T00:00:49.890Z,981.992
2018-06-08T00:02:50.094Z,981.970
2018-06-08T00:04:50.562Z,981.950
2018-06-08T00:06:49.855Z,981.941
2018-06-08T00:08:50.160Z,981.917
2018-06-08T00:10:50.318Z,981.863
2018-06-08T00:12:50.491Z,981.841
2018-06-08T00:14:49.671Z,981.803
2018-06-08T00:16:49.860Z,981.787
2018-06-08T00:18:50.034Z,981.760
2018-06-08T00:20:50.235Z,981.745
2018-06-08T00:22:50.371Z,981.725
2018-06-08T00:24:50.501Z,981.699
2018-06-08T00:26:49.710Z,981.679
2018-06-08T00:28:49.812Z,981.654
2018-06-08T00:30:49.990Z,981.662
2018-06-08T00:32:50.150Z,981.628
2018-06-08T00:34:50.571Z,981.608
2018-06-08T00:36:49.868Z,981.579
2018-06-08T00:38:49.971Z,981.578
2018-06-08T00:40:50.109Z,981.591
2018-06-08T00:42:50.248Z,981.569
2018-06-08T00:44:50.413Z,981.551
2018-06-08T00:46:49.687Z,981.532
2018-06-08T00:48:49.762Z,981.489
2018-06-08T00:50:49.954Z,981.450
2018-06-08T00:52:50.081Z,981.402
2018-06-08T00:54:50.219Z,981.344
2018-06-08T00:56:50.502Z,981.344
2018-06-08T00:58:50.442Z,981.256
2018-06-08T01:00:50.604Z,981.201
2018-06-08T01:02:49.798Z,981.185
2018-06-08T01:04:50.177Z,981.191
2018-06-08T01:06:50.487Z,981.175
2018-06-08T01:08:49.632Z,981.162
2018-06-08T01:10:49.855Z,981.178
2018-06-08T01:12:50.006Z,981.171
2018-06-08T01:14:50.183Z,981.160
2018-06-08T01:16:50.468Z,981.132
2018-06-08T01:18:49.672Z,981.122
2018-06-08T01:20:49.823Z,981.127
2018-06-08T01:22:50.125Z,981.145
2018-06-08T01:24:50.295Z,981.158
2018-06-08T01:26:50.556Z,981.163
2018-06-08T01:28:49.733Z,981.181
2018-06-08T01:30:49.818Z,981.145
2018-06-08T01:32:49.999Z,981.094
2018-06-08T01:34:50.393Z,981.033
2018-06-08T01:36:49.691Z,981.022
2018-06-08T01:38:49.828Z,981.037
2018-06-08T01:40:49.978Z,981.056
2018-06-08T01:42:50.175Z,981.083
2018-06-08T01:44:50.487Z,981.087
2018-06-08T01:46:49.836Z,981.073
2018-06-08T01:48:50.018Z,981.026
2018-06-08T01:50:50.204Z,980.995
2018-06-08T01:52:50.315Z,980.965
2018-06-08T01:54:50.479Z,980.947
2018-06-08T01:56:49.762Z,980.956
2018-06-08T01:58:49.936Z,980.957
2018-06-08T02:00:50.216Z,980.964
2018-06-08T02:02:50.514Z,980.958
2018-06-08T02:04:49.834Z,980.982
2018-06-08T02:06:50.103Z,980.999
2018-06-08T02:08:49.872Z,981.001
2018-06-08T02:10:50.002Z,980.995
2018-06-08T02:12:50.207Z,980.994
2018-06-08T02:14:50.347Z,980.989
2018-06-08T02:16:49.718Z,981.000
2018-06-08T02:18:49.914Z,981.013
2018-06-08T02:20:50.028Z,981.007
2018-06-08T02:22:50.220Z,981.006
2018-06-08T02:24:50.395Z,981.000
2018-06-08T02:26:49.637Z,980.999
2018-06-08T02:28:49.791Z,980.984
2018-06-08T02:30:50.006Z,980.942
2018-06-08T02:32:50.181Z,980.925
2018-06-08T02:34:49.735Z,980.890
2018-06-08T02:36:50.078Z,980.880
2018-06-08T02:38:50.239Z,980.886
2018-06-08T02:40:50.392Z,980.904
2018-06-08T02:42:50.597Z,980.931
2018-06-08T02:44:49.698Z,980.940
2018-06-08T02:46:50.010Z,980.935
2018-06-08T02:48:50.238Z,980.944
2018-06-08T02:50:50.498Z,980.957
2018-06-08T02:52:49.705Z,980.954
2018-06-08T02:54:49.893Z,980.947
2018-06-08T02:56:50.208Z,980.954
2018-06-08T02:58:50.451Z,980.976
2018-06-08T03:00:49.676Z,980.976
2018-06-08T03:02:49.851Z,981.011
2018-06-08T03:04:50.168Z,980.997
2018-06-08T03:06:50.481Z,980.954
2018-06-08T03:08:49.684Z,980.951
2018-06-08T03:10:49.847Z,980.939
2018-06-08T03:12:50.123Z,980.983
2018-06-08T03:14:50.300Z,981.007
2018-06-08T03:16:50.602Z,981.033
2018-06-08T03:18:49.722Z,981.068
2018-06-08T03:20:49.846Z,981.079
2018-06-08T03:22:49.986Z,981.074
2018-06-08T03:24:50.185Z,981.070
2018-06-08T03:26:50.586Z,981.088
2018-06-08T03:28:49.809Z,981.088
2018-06-08T03:30:50.070Z,981.095
2018-06-08T03:32:50.224Z,981.104
2018-06-08T03:34:49.808Z,981.116
2018-06-08T03:36:50.029Z,981.128
2018-06-08T03:38:50.176Z,981.155
2018-06-08T03:40:50.398Z,981.151
2018-06-08T03:42:50.581Z,981.172
2018-06-08T03:44:49.746Z,981.154
2018-06-08T03:46:50.067Z,981.151
2018-06-08T03:48:50.377Z,981.151
2018-06-08T03:50:50.485Z,981.152
2018-06-08T03:52:49.731Z,981.165
2018-06-08T03:54:49.867Z,981.172
2018-06-08T03:56:50.140Z,981.196
2018-06-08T03:58:50.249Z,981.196
2018-06-08T04:00:50.431Z,981.208
2018-06-08T04:02:50.555Z,981.202
2018-06-08T04:04:50.093Z,981.203
2018-06-08T04:06:50.466Z,981.206
2018-06-08T04:08:50.607Z,981.219
2018-06-08T04:10:49.742Z,981.298
2018-06-08T04:12:49.936Z,981.323
2018-06-08T04:14:50.075Z,981.350
2018-06-08T04:16:50.375Z,981.377
2018-06-08T04:18:50.520Z,981.364
2018-06-08T04:20:49.688Z,981.370
2018-06-08T04:22:49.807Z,981.375
2018-06-08T04:24:49.974Z,981.423
2018-06-08T04:26:49.892Z,981.421
2018-06-08T04:28:50.018Z,981.423
2018-06-08T04:30:50.167Z,981.434
2018-06-08T04:32:50.601Z,981.432
2018-06-08T04:34:50.547Z,981.413
2018-06-08T04:36:49.742Z,981.412
2018-06-08T04:38:49.878Z,981.436
2018-06-08T04:40:50.010Z,981.488
2018-06-08T04:42:50.144Z,981.501
2018-06-08T04:44:50.268Z,981.486
2018-06-08T04:46:50.497Z,981.479
2018-06-08T04:48:49.670Z,981.485
2018-06-08T04:50:49.784Z,981.496
2018-06-08T04:52:49.946Z,981.484
2018-06-08T04:54:50.189Z,981.474
2018-06-08T04:56:50.518Z,981.498
2018-06-08T04:58:49.638Z,981.509
2018-06-08T05:00:49.800Z,981.507
2018-06-08T05:02:49.952Z,981.492
2018-06-08T05:04:50.317Z,981.489
2018-06-08T05:06:49.888Z,981.486
2018-06-08T05:08:50.027Z,981.499
2018-06-08T05:10:50.147Z,981.515
2018-06-08T05:12:50.338Z,981.518
2018-06-08T05:14:50.450Z,981.503
2018-06-08T05:16:49.658Z,981.490
2018-06-08T05:18:49.803Z,981.487
2018-06-08T05:20:49.977Z,981.525
2018-06-08T05:22:50.186Z,981.539
2018-06-08T05:24:50.393Z,981.547
2018-06-08T05:26:49.687Z,981.572
2018-06-08T05:28:49.868Z,981.594
2018-06-08T05:30:50.025Z,981.603
2018-06-08T05:32:50.193Z,981.608
2018-06-08T05:34:50.448Z,981.609
2018-06-08T05:36:50.397Z,981.562
2018-06-08T05:38:50.535Z,981.545
2018-06-08T05:40:49.709Z,981.541
2018-06-08T05:42:49.832Z,981.528
2018-06-08T05:44:50.067Z,981.492
2018-06-08T05:46:50.348Z,981.474
2018-06-08T05:48:50.582Z,981.484
2018-06-08T05:50:49.692Z,981.505
2018-06-08T05:52:49.879Z,981.531
2018-06-08T05:54:50.036Z,981.537
2018-06-08T05:56:50.459Z,981.596
2018-06-08T05:58:50.580Z,981.614
2018-06-08T06:00:49.717Z,981.613
2018-06-08T06:02:49.913Z,981.613
2018-06-08T06:04:50.253Z,981.591
2018-06-08T06:06:50.527Z,981.588
2018-06-08T06:08:49.678Z,981.601
2018-06-08T06:10:49.856Z,981.603
2018-06-08T06:12:49.996Z,981.579
2018-06-08T06:14:50.224Z,981.597
2018-06-08T06:16:49.704Z,981.607
2018-06-08T06:18:49.848Z,981.646
2018-06-08T06:20:50.050Z,981.659
2018-06-08T06:22:50.386Z,981.683
2018-06-08T06:24:49.617Z,981.687
2018-06-08T06:26:49.926Z,981.682
2018-06-08T06:28:50.096Z,981.686
2018-06-08T06:30:50.267Z,981.671
2018-06-08T06:32:50.446Z,981.654
2018-06-08T06:34:49.910Z,981.651
2018-06-08T06:36:50.141Z,981.669
2018-06-08T06:38:50.277Z,981.665
2018-06-08T06:40:50.415Z,981.656
2018-06-08T06:42:50.556Z,981.671
2018-06-08T06:44:49.844Z,981.681
2018-06-08T06:46:50.322Z,981.716
2018-06-08T06:48:50.468Z,981.724
2018-06-08T06:50:50.594Z,981.719
2018-06-08T06:52:49.791Z,981.710
2018-06-08T06:54:49.959Z,981.680
2018-06-08T06:56:50.142Z,981.668
2018-06-08T06:58:50.554Z,981.669
2018-06-08T07:00:49.810Z,981.658
2018-06-08T07:02:49.901Z,981.658
2018-06-08T07:04:50.288Z,981.643
2018-06-08T07:06:50.524Z,981.636
2018-06-08T07:08:49.661Z,981.675
2018-06-08T07:10:49.843Z,981.665
2018-06-08T07:12:50.332Z,981.683
2018-06-08T07:14:49.910Z,981.689
2018-06-08T07:16:50.159Z,981.680
2018-06-08T07:18:50.322Z,981.666
2018-06-08T07:20:49.610Z,981.643
2018-06-08T07:22:49.794Z,981.628
2018-06-08T07:24:50.162Z,981.623
2018-06-08T07:26:49.869Z,981.615
2018-06-08T07:28:50.041Z,981.620
2018-06-08T07:30:50.205Z,981.616
2018-06-08T07:32:50.346Z,981.610
2018-06-08T07:34:49.900Z,981.584
2018-06-08T07:36:50.236Z,981.590
2018-06-08T07:38:50.383Z,981.592
2018-06-08T07:40:50.522Z,981.603
2018-06-08T07:42:49.679Z,981.620
2018-06-08T07:44:49.810Z,981.634
2018-06-08T07:46:50.307Z,981.608
2018-06-08T07:48:49.867Z,981.575
2018-06-08T07:50:50.005Z,981.575
2018-06-08T07:52:50.077Z,981.547
2018-06-08T07:54:50.266Z,981.531
2018-06-08T07:56:50.596Z,981.476
2018-06-08T07:58:49.718Z,981.465
2018-06-08T08:00:49.871Z,981.432
2018-06-08T08:02:50.024Z,981.430
2018-06-08T08:04:50.473Z,981.424
2018-06-08T08:06:49.674Z,981.415
2018-06-08T08:08:49.815Z,981.436
2018-06-08T08:10:49.942Z,981.440
2018-06-08T08:12:50.125Z,981.416
2018-06-08T08:14:50.243Z,981.370
2018-06-08T08:16:49.642Z,981.368
2018-06-08T08:18:49.754Z,981.368
2018-06-08T08:20:49.875Z,981.337
2018-06-08T08:22:50.070Z,981.335
2018-06-08T08:24:50.231Z,981.294
2018-06-08T08:26:50.453Z,981.265
2018-06-08T08:28:50.563Z,981.226
2018-06-08T08:30:49.686Z,981.182
2018-06-08T08:32:49.837Z,981.175
2018-06-08T08:34:50.271Z,981.147
2018-06-08T08:36:50.587Z,981.126
2018-06-08T08:38:49.660Z,981.101
2018-06-08T08:40:49.801Z,981.076
2018-06-08T08:42:49.955Z,981.066
2018-06-08T08:44:50.156Z,981.065
2018-06-08T08:46:50.439Z,981.029
2018-06-08T08:48:50.571Z,981.020
2018-06-08T08:50:49.680Z,980.996
2018-06-08T08:52:49.806Z,980.973
2018-06-08T08:54:49.902Z,980.960
2018-06-08T08:56:50.549Z,980.970
2018-06-08T08:58:50.330Z,980.954
2018-06-08T09:00:50.478Z,980.946
2018-06-08T09:02:50.657Z,980.897
2018-06-08T09:04:49.942Z,980.875
2018-06-08T09:06:50.200Z,980.839
2018-06-08T09:08:50.355Z,980.812
2018-06-08T09:10:50.480Z,980.791
2018-06-08T09:12:49.652Z,980.755
2018-06-08T09:14:49.923Z,980.743
2018-06-08T09:16:50.198Z,980.731
2018-06-08T09:18:50.356Z,980.731
2018-06-08T09:20:50.528Z,980.671
2018-06-08T09:22:49.748Z,980.671
2018-06-08T09:24:49.876Z,980.671
2018-06-08T09:26:50.163Z,980.661
2018-06-08T09:28:50.297Z,980.606
2018-06-08T09:30:50.479Z,980.586
2018-06-08T09:32:49.653Z,980.581
2018-06-08T09:34:50.087Z,980.585
2018-06-08T09:36:50.323Z,980.558
2018-06-08T09:38:50.485Z,980.552
2018-06-08T09:40:49.686Z,980.545
2018-06-08T09:42:49.916Z,980.518
2018-06-08T09:44:50.064Z,980.520
2018-06-08T09:46:50.454Z,980.516
2018-06-08T09:48:49.672Z,980.500
2018-06-08T09:50:49.791Z,980.500
2018-06-08T09:52:49.980Z,980.432
2018-06-08T09:54:50.438Z,980.433
2018-06-08T09:56:50.026Z,980.426
2018-06-08T09:58:50.227Z,980.417
2018-06-08T10:00:50.403Z,980.417
2018-06-08T10:02:50.512Z,980.413
2018-06-08T10:04:49.878Z,980.390
2018-06-08T10:06:50.104Z,980.390
2018-06-08T10:08:50.270Z,980.334
2018-06-08T10:10:50.411Z,980.300
2018-06-08T10:12:50.550Z,980.284
2018-06-08T10:14:49.696Z,980.271
2018-06-08T10:16:49.928Z,980.289
2018-06-08T10:18:50.054Z,980.256
2018-06-08T10:20:50.167Z,980.244
2018-06-08T10:22:50.293Z,980.252
2018-06-08T10:24:50.425Z,980.228
2018-06-08T10:26:50.442Z,980.177
2018-06-08T10:28:50.615Z,980.177
2018-06-08T10:30:49.762Z,980.108
2018-06-08T10:32:49.931Z,980.095
2018-06-08T10:34:50.391Z,980.077
2018-06-08T10:36:49.819Z,980.079
2018-06-08T10:38:49.943Z,980.051
2018-06-08T10:40:50.129Z,979.993
2018-06-08T10:42:50.288Z,979.993
2018-06-08T10:44:50.377Z,979.943
2018-06-08T10:46:49.686Z,979.929
2018-06-08T10:48:49.885Z,979.910
2018-06-08T10:50:50.116Z,979.918
2018-06-08T10:52:50.355Z,979.837
2018-06-08T10:54:50.533Z,979.814
2018-06-08T10:56:49.948Z,979.812
2018-06-08T10:58:50.134Z,979.789
2018-06-08T11:00:50.260Z,979.794
2018-06-08T11:02:50.571Z,979.785
2018-06-08T11:04:49.889Z,979.816
2018-06-08T11:06:50.170Z,979.814
2018-06-08T11:08:50.265Z,979.797
2018-06-08T11:10:50.479Z,979.773
2018-06-08T11:12:49.794Z,979.757
2018-06-08T11:14:49.954Z,979.755
2018-06-08T11:16:50.216Z,979.781
2018-06-08T11:18:50.399Z,979.759
2018-06-08T11:20:50.547Z,979.687
2018-06-08T11:22:49.679Z,979.645
2018-06-08T11:24:49.832Z,979.631
2018-06-08T11:26:50.280Z,979.614
2018-06-08T11:28:50.517Z,979.614
2018-06-08T11:30:49.658Z,979.613
2018-06-08T11:32:49.784Z,979.592
2018-06-08T11:34:50.247Z,979.592
2018-06-08T11:36:50.548Z,979.587
2018-06-08T11:38:49.811Z,979.599
2018-06-08T11:40:50.016Z,979.566
2018-06-08T11:42:50.136Z,979.501
2018-06-08T11:44:50.284Z,979.507
2018-06-08T11:46:50.510Z,979.455
2018-06-08T11:48:49.652Z,979.449
2018-06-08T11:50:49.832Z,979.410
2018-06-08T11:52:49.975Z,979.414
2018-06-08T11:54:50.088Z,979.413
2018-06-08T11:56:50.277Z,979.379
2018-06-08T11:58:50.533Z,979.367
2018-06-08T12:00:49.643Z,979.372
2018-06-08T12:02:49.872Z,979.360
2018-06-08T12:04:50.270Z,979.322
2018-06-08T12:06:50.491Z,979.292
2018-06-08T12:08:49.645Z,979.285
2018-06-08T12:10:49.769Z,979.310
2018-06-08T12:12:49.937Z,979.292
2018-06-08T12:14:50.047Z,979.261
2018-06-08T12:16:50.414Z,979.263
2018-06-08T12:18:49.636Z,979.220
2018-06-08T12:20:49.756Z,979.190
2018-06-08T12:22:49.960Z,979.141
2018-06-08T12:24:50.119Z,979.100
2018-06-08T12:26:50.380Z,979.056
2018-06-08T12:28:49.653Z,978.995
2018-06-08T12:30:50.078Z,978.977
2018-06-08T12:32:49.772Z,978.969
2018-06-08T12:34:50.219Z,979.044
2018-06-08T12:36:50.472Z,979.061
2018-06-08T12:38:50.572Z,979.005
2018-06-08T12:40:49.876Z,979.005
2018-06-08T12:42:50.150Z,978.975
2018-06-08T12:44:50.257Z,978.928
2018-06-08T12:46:49.675Z,978.861
2018-06-08T12:48:49.904Z,978.840
2018-06-08T12:50:50.155Z,978.856
2018-06-08T12:52:50.379Z,978.853
2018-06-08T12:54:50.557Z,978.795
2018-06-08T12:56:50.023Z,978.750
2018-06-08T12:58:50.429Z,978.750
2018-06-08T13:00:50.612Z,978.706
2018-06-08T13:02:49.784Z,978.724
2018-06-08T13:04:50.174Z,978.686
2018-06-08T13:06:50.422Z,978.668
2018-06-08T13:08:50.577Z,978.660
2018-06-08T13:10:49.821Z,978.637
2018-06-08T13:12:49.994Z,978.620
2018-06-08T13:14:50.120Z,978.625
2018-06-08T13:16:50.453Z,978.627
2018-06-08T13:18:50.619Z,978.642
2018-06-08T13:20:49.836Z,978.633
2018-06-08T13:22:50.017Z,978.610
2018-06-08T13:24:50.201Z,978.565
2018-06-08T13:26:50.501Z,978.501
2018-06-08T13:28:49.679Z,978.457
2018-06-08T13:30:49.866Z,978.430
2018-06-08T13:32:49.985Z,978.386
2018-06-08T13:34:50.431Z,978.338
2018-06-08T13:36:49.676Z,978.310
2018-06-08T13:38:49.869Z,978.292
2018-06-08T13:40:49.988Z,978.352
2018-06-08T13:42:50.158Z,978.354
2018-06-08T13:44:50.367Z,978.299
2018-06-08T13:46:49.612Z,978.272
2018-06-08T13:48:49.621Z,978.228
2018-06-08T13:50:49.837Z,978.180
2018-06-08T13:52:50.009Z,978.150
2018-06-08T13:54:50.122Z,978.109
2018-06-08T13:56:50.414Z,978.081
2018-06-08T13:58:49.657Z,978.005
2018-06-08T14:00:49.801Z,978.004
2018-06-08T14:02:50.108Z,977.970
2018-06-08T14:04:50.438Z,977.942
2018-06-08T14:06:49.770Z,977.893
2018-06-08T14:08:49.985Z,977.846
2018-06-08T14:10:50.140Z,977.810
2018-06-08T14:12:50.393Z,977.791
2018-06-08T14:14:50.526Z,977.802
2018-06-08T14:16:49.838Z,977.816
2018-06-08T14:18:50.010Z,977.794
2018-06-08T14:20:50.357Z,977.762
2018-06-08T14:22:49.867Z,977.735
2018-06-08T14:24:50.029Z,977.715
2018-06-08T14:26:50.279Z,977.721
2018-06-08T14:28:50.424Z,977.702
2018-06-08T14:30:50.572Z,977.696
2018-06-08T14:32:49.808Z,977.694
2018-06-08T14:34:50.221Z,977.669
2018-06-08T14:36:50.492Z,977.648
2018-06-08T14:38:49.653Z,977.649
2018-06-08T14:40:49.837Z,977.619
2018-06-08T14:42:50.046Z,977.589
2018-06-08T14:44:50.249Z,977.543
2018-06-08T14:46:50.514Z,977.503
2018-06-08T14:48:49.653Z,977.488
2018-06-08T14:50:49.815Z,977.426
2018-06-08T14:52:49.905Z,977.379
2018-06-08T14:54:50.115Z,977.371
2018-06-08T14:56:50.391Z,977.368
2018-06-08T14:58:50.648Z,977.357
2018-06-08T15:00:49.985Z,977.359
2018-06-08T15:02:50.179Z,977.340
2018-06-08T15:04:50.539Z,977.316
2018-06-08T15:06:49.817Z,977.306
2018-06-08T15:08:49.938Z,977.275
2018-06-08T15:10:50.095Z,977.221
2018-06-08T15:12:50.248Z,977.237
2018-06-08T15:14:50.453Z,977.247
2018-06-08T15:16:49.796Z,977.271
2018-06-08T15:18:49.982Z,977.277
2018-06-08T15:20:50.133Z,977.307
2018-06-08T15:22:50.261Z,977.324
2018-06-08T15:24:50.391Z,977.362
2018-06-08T15:26:49.715Z,977.372
2018-06-08T15:28:49.917Z,977.358
2018-06-08T15:30:50.056Z,977.352
2018-06-08T15:32:50.218Z,977.352
2018-06-08T15:34:50.546Z,977.375
2018-06-08T15:36:49.828Z,977.368
2018-06-08T15:38:49.989Z,977.353
2018-06-08T15:40:50.234Z,977.353
2018-06-08T15:42:50.319Z,977.363
2018-06-08T15:44:50.467Z,977.398
2018-06-08T15:46:49.733Z,977.397
2018-06-08T15:48:49.894Z,977.361
2018-06-08T15:50:50.076Z,977.346
2018-06-08T15:52:50.231Z,977.318
2018-06-08T15:54:50.357Z,977.309
2018-06-08T15:56:49.644Z,977.289
2018-06-08T15:58:49.806Z,977.283
2018-06-08T16:00:50.164Z,977.289
2018-06-08T16:02:50.579Z,977.277
2018-06-08T16:04:49.957Z,977.266
2018-06-08T16:06:50.312Z,977.218
2018-06-08T16:08:50.497Z,977.218
2018-06-08T16:10:49.683Z,977.209
2018-06-08T16:12:49.825Z,977.206
2018-06-08T16:14:49.993Z,977.231
2018-06-08T16:16:50.328Z,977.334
2018-06-08T16:18:50.524Z,977.444
2018-06-08T16:20:49.703Z,977.560
2018-06-08T16:22:49.853Z,977.595
2018-06-08T16:24:50.075Z,977.661
2018-06-08T16:26:50.441Z,977.661
2018-06-08T16:28:49.709Z,977.666
2018-06-08T16:30:49.869Z,977.636
2018-06-08T16:32:50.280Z,977.627
2018-06-08T16:34:49.641Z,977.564
2018-06-08T16:36:50.012Z,977.497
2018-06-08T16:38:50.182Z,977.458
2018-06-08T16:40:50.354Z,977.354
2018-06-08T16:42:50.517Z,977.280
2018-06-08T16:44:49.684Z,977.241
2018-06-08T16:46:49.932Z,977.208
2018-06-08T16:48:50.108Z,977.208
2018-06-08T16:50:50.267Z,977.168
2018-06-08T16:52:50.457Z,977.139
2018-06-08T16:54:50.611Z,977.131
2018-06-08T16:56:49.899Z,977.128
2018-06-08T16:58:50.089Z,977.100
2018-06-08T17:00:50.265Z,977.090
2018-06-08T17:02:50.494Z,977.071
2018-06-08T17:04:49.957Z,977.076
2018-06-08T17:06:50.204Z,977.081
2018-06-08T17:08:50.353Z,977.100
2018-06-08T17:10:50.498Z,977.118
2018-06-08T17:12:49.688Z,977.114
2018-06-08T17:14:49.819Z,977.137
2018-06-08T17:16:50.145Z,977.185
2018-06-08T17:18:50.518Z,977.199
2018-06-08T17:20:50.435Z,977.195
2018-06-08T17:22:49.815Z,977.220
2018-06-08T17:24:49.993Z,977.219
2018-06-08T17:26:50.246Z,977.252
2018-06-08T17:28:50.531Z,977.257
2018-06-08T17:30:49.697Z,977.273
2018-06-08T17:32:49.854Z,977.304
2018-06-08T17:34:50.365Z,977.321
2018-06-08T17:36:49.644Z,977.338
2018-06-08T17:38:49.812Z,977.346
2018-06-08T17:40:49.991Z,977.354
2018-06-08T17:42:50.156Z,977.353
2018-06-08T17:44:50.300Z,977.343
2018-06-08T17:46:49.732Z,977.352
2018-06-08T17:48:49.945Z,977.378
2018-06-08T17:50:50.144Z,977.391
2018-06-08T17:52:50.312Z,977.431
2018-06-08T17:54:50.412Z,977.431
2018-06-08T17:56:49.716Z,977.486
2018-06-08T17:58:49.858Z,977.522
2018-06-08T18:00:50.032Z,977.557
2018-06-08T18:02:50.188Z,977.572
2018-06-08T18:04:49.732Z,977.584
2018-06-08T18:06:50.020Z,977.597
2018-06-08T18:08:50.236Z,977.593
2018-06-08T18:10:50.367Z,977.583
2018-06-08T18:12:50.521Z,977.607
2018-06-08T18:14:49.726Z,977.617
2018-06-08T18:16:50.372Z,977.624
2018-06-08T18:18:50.523Z,977.658
2018-06-08T18:20:49.685Z,977.668
2018-06-08T18:22:49.820Z,977.673
2018-06-08T18:24:50.047Z,977.683
2018-06-08T18:26:50.524Z,977.697
2018-06-08T18:28:49.878Z,977.708
2018-06-08T18:30:50.169Z,977.709
2018-06-08T18:32:50.378Z,977.714
2018-06-08T18:34:49.762Z,977.711
2018-06-08T18:36:50.160Z,977.708
2018-06-08T18:38:50.395Z,977.685
2018-06-08T18:40:49.683Z,977.674
2018-06-08T18:42:49.856Z,977.653
2018-06-08T18:44:50.096Z,977.674
2018-06-08T18:46:50.485Z,977.720
2018-06-08T18:48:49.716Z,977.741
2018-06-08T18:50:49.919Z,977.772
2018-06-08T18:52:50.163Z,977.804
2018-06-08T18:54:50.406Z,977.817
2018-06-08T18:56:49.771Z,977.829
2018-06-08T18:58:49.958Z,977.834
2018-06-08T19:00:50.326Z,977.843
2018-06-08T19:02:49.675Z,977.853
2018-06-08T19:04:50.224Z,977.876
2018-06-08T19:06:50.555Z,977.868
2018-06-08T19:08:49.832Z,977.840
2018-06-08T19:10:50.162Z,977.847
2018-06-08T19:12:50.488Z,977.843
2018-06-08T19:14:49.726Z,977.877
2018-06-08T19:16:50.088Z,977.913
2018-06-08T19:18:50.404Z,977.967
2018-06-08T19:20:50.605Z,978.007
2018-06-08T19:22:49.945Z,978.016
2018-06-08T19:24:50.178Z,978.034
2018-06-08T19:26:50.583Z,978.039
2018-06-08T19:28:49.761Z,978.055
2018-06-08T19:30:50.213Z,978.087
2018-06-08T19:32:49.774Z,978.129
2018-06-08T19:34:50.339Z,978.173
2018-06-08T19:36:49.717Z,978.199
2018-06-08T19:38:50.016Z,978.257
2018-06-08T19:40:50.184Z,978.271
2018-06-08T19:42:50.361Z,978.305
2018-06-08T19:44:50.537Z,978.313
2018-06-08T19:46:49.831Z,978.360
2018-06-08T19:48:49.993Z,978.379
2018-06-08T19:50:50.215Z,978.413
2018-06-08T19:52:50.470Z,978.400
2018-06-08T19:54:49.599Z,978.405
2018-06-08T19:56:49.900Z,978.411
2018-06-08T19:58:50.079Z,978.411
2018-06-08T20:00:50.283Z,978.404
2018-06-08T20:02:50.473Z,978.364
2018-06-08T20:04:50.000Z,978.344
2018-06-08T20:06:50.435Z,978.336
2018-06-08T20:08:49.728Z,978.349
2018-06-08T20:10:49.928Z,978.378
2018-06-08T20:12:50.375Z,978.402
2018-06-08T20:14:50.600Z,978.400
2018-06-08T20:16:50.030Z,978.393
2018-06-08T20:18:50.191Z,978.368
2018-06-08T20:20:50.359Z,978.349
2018-06-08T20:22:50.600Z,978.362
2018-06-08T20:24:49.819Z,978.369
2018-06-08T20:26:50.245Z,978.366
2018-06-08T20:28:50.542Z,978.359
2018-06-08T20:30:49.764Z,978.367
2018-06-08T20:32:50.052Z,978.369
2018-06-08T20:34:50.467Z,978.357
2018-06-08T20:36:49.839Z,978.377
2018-06-08T20:38:50.084Z,978.379
2018-06-08T20:40:50.345Z,978.366
2018-06-08T20:42:50.595Z,978.359
2018-06-08T20:44:49.773Z,978.350
2018-06-08T20:46:50.233Z,978.340
2018-06-08T20:48:50.434Z,978.355
2018-06-08T20:50:49.640Z,978.366
2018-06-08T20:52:49.977Z,978.380
2018-06-08T20:54:50.209Z,978.386
2018-06-08T20:56:50.561Z,978.398
2018-06-08T20:58:49.823Z,978.389
2018-06-08T21:00:50.012Z,978.353
2018-06-08T21:02:50.236Z,978.335
2018-06-08T21:04:50.608Z,978.333
2018-06-08T21:06:50.001Z,978.351
2018-06-08T21:08:50.203Z,978.357
2018-06-08T21:10:50.357Z,978.370
2018-06-08T21:12:50.554Z,978.370
2018-06-08T21:14:49.807Z,978.349
2018-06-08T21:16:50.119Z,978.337
2018-06-08T21:18:50.334Z,978.335
2018-06-08T21:20:50.494Z,978.342
2018-06-08T21:22:49.714Z,978.336
2018-06-08T21:24:49.877Z,978.316
2018-06-08T21:26:50.136Z,978.316
2018-06-08T21:28:50.239Z,978.314
2018-06-08T21:30:50.404Z,978.338
2018-06-08T21:32:49.621Z,978.340
2018-06-08T21:34:50.074Z,978.337
2018-06-08T21:36:50.430Z,978.340
2018-06-08T21:38:49.710Z,978.368
2018-06-08T21:40:50.017Z,978.375
2018-06-08T21:42:50.380Z,978.400
2018-06-08T21:44:49.644Z,978.405
2018-06-08T21:46:49.869Z,978.416
2018-06-08T21:48:50.126Z,978.434
2018-06-08T21:50:50.364Z,978.425
2018-06-08T21:52:49.708Z,978.397
2018-06-08T21:54:49.986Z,978.378
2018-06-08T21:56:50.346Z,978.356
2018-06-08T21:58:50.602Z,978.355
2018-06-08T22:00:49.864Z,978.342
2018-06-08T22:02:50.145Z,978.324
2018-06-08T22:04:50.516Z,978.304
2018-06-08T22:06:49.930Z,978.288
2018-06-08T22:08:50.118Z,978.300
2018-06-08T22:10:50.318Z,978.294
2018-06-08T22:12:50.515Z,978.277
2018-06-08T22:14:49.842Z,978.256
2018-06-08T22:16:50.224Z,978.253
2018-06-08T22:18:50.489Z,978.240
2018-06-08T22:20:49.893Z,978.225
2018-06-08T22:22:50.245Z,978.196
2018-06-08T22:24:50.472Z,978.174
2018-06-08T22:26:49.914Z,978.185
2018-06-08T22:28:50.080Z,978.207
2018-06-08T22:30:50.372Z,978.205
2018-06-08T22:32:49.740Z,978.212
2018-06-08T22:34:50.201Z,978.210
2018-06-08T22:36:50.572Z,978.218
2018-06-08T22:38:49.850Z,978.221
2018-06-08T22:40:50.114Z,978.222
2018-06-08T22:42:50.440Z,978.221
2018-06-08T22:44:49.698Z,978.249
2018-06-08T22:46:50.060Z,978.257
2018-06-08T22:48:50.246Z,978.256
2018-06-08T22:50:49.643Z,978.275
2018-06-08T22:52:49.810Z,978.310
2018-06-08T22:54:50.034Z,978.334
2018-06-08T22:56:50.319Z,978.328
2018-06-08T22:58:50.569Z,978.328
2018-06-08T23:00:49.977Z,978.304
2018-06-08T23:02:50.409Z,978.298
2018-06-08T23:04:49.730Z,978.299
2018-06-08T23:06:50.112Z,978.310
2018-06-08T23:08:50.308Z,978.344
2018-06-08T23:10:50.500Z,978.352
2018-06-08T23:12:49.681Z,978.363
2018-06-08T23:14:49.843Z,978.360
2018-06-08T23:16:50.157Z,978.364
2018-06-08T23:18:50.465Z,978.356
2018-06-08T23:20:49.704Z,978.371
2018-06-08T23:22:49.849Z,978.384
2018-06-08T23:24:50.061Z,978.400
2018-06-08T23:26:50.466Z,978.405
2018-06-08T23:28:49.796Z,978.414
2018-06-08T23:30:50.039Z,978.417
2018-06-08T23:32:50.338Z,978.394
2018-06-08T23:34:49.769Z,978.399
2018-06-08T23:36:50.102Z,978.420
2018-06-08T23:38:50.321Z,978.450
2018-06-08T23:40:50.581Z,978.487
2018-06-08T23:42:49.799Z,978.549
2018-06-08T23:44:50.015Z,978.601
2018-06-08T23:46:50.458Z,978.611
2018-06-08T23:48:49.715Z,978.634
2018-06-08T23:50:49.901Z,978.646
2018-06-08T23:52:50.197Z,978.662
2018-06-08T23:54:50.428Z,978.670
2018-06-08T23:56:49.869Z,978.685
2018-06-08T23:58:50.122Z,978.712
